createdAt,value
2023-02-05T00:02:43.304Z,5.55
2023-02-05T00:06:45.730Z,5.42
2023-02-05T00:10:53.792Z,5.41
2023-02-05T00:14:55.370Z,5.29
2023-02-05T00:18:57.002Z,5.23
2023-02-05T00:22:59.296Z,5.09
2023-02-05T00:27:00.976Z,5.14
2023-02-05T00:31:18.331Z,5.09
2023-02-05T00:35:20.516Z,5.11
2023-02-05T00:39:22.184Z,5.09
2023-02-05T00:43:23.794Z,5.08
2023-02-05T00:47:25.480Z,5.01
2023-02-05T00:51:27.078Z,5.02
2023-02-05T00:55:28.641Z,5.05
2023-02-05T00:59:30.280Z,4.88
2023-02-05T01:03:32.519Z,4.87
2023-02-05T01:07:34.068Z,4.87
2023-02-05T01:11:35.754Z,4.84
2023-02-05T01:15:37.828Z,4.87
2023-02-05T01:19:39.485Z,4.87
2023-02-05T01:23:41.082Z,4.86
2023-02-05T01:27:42.696Z,4.86
2023-02-05T01:31:44.329Z,4.90
2023-02-05T01:35:46.029Z,4.90
2023-02-05T01:39:47.983Z,4.94
2023-02-05T01:44:11.726Z,4.96
2023-02-05T01:48:13.202Z,5.04
2023-02-05T01:52:17.193Z,5.06
2023-02-05T01:56:23.074Z,5.14
2023-02-05T02:00:24.670Z,5.15
2023-02-05T02:04:54.875Z,5.20
2023-02-05T02:08:57.264Z,5.19
2023-02-05T02:12:58.857Z,5.27
2023-02-05T02:17:02.105Z,5.32
2023-02-05T02:21:25.629Z,5.26
2023-02-05T02:26:07.303Z,5.27
2023-02-05T02:30:22.356Z,5.30
2023-02-05T02:34:39.237Z,5.37
2023-02-05T02:38:50.113Z,5.35
2023-02-05T02:43:03.864Z,5.41
2023-02-05T02:47:17.610Z,5.44
2023-02-05T02:51:21.408Z,5.44
2023-02-05T02:55:24.488Z,5.49
2023-02-05T02:59:30.299Z,5.44
2023-02-05T03:03:35.900Z,5.44
2023-02-05T03:07:45.431Z,5.47
2023-02-05T03:11:47.641Z,5.44
2023-02-05T03:15:50.210Z,5.42
2023-02-05T03:20:06.341Z,5.42
2023-02-05T03:24:09.728Z,5.42
2023-02-05T03:28:13.049Z,5.41
2023-02-05T03:32:34.883Z,5.33
2023-02-05T03:36:54.891Z,5.30
2023-02-05T03:41:56.391Z,5.26
2023-02-05T03:46:28.500Z,5.27
2023-02-05T03:50:58.161Z,5.22
2023-02-05T03:55:18.548Z,5.22
2023-02-05T03:59:23.065Z,5.17
2023-02-05T04:03:25.672Z,5.19
2023-02-05T04:07:27.422Z,5.19
2023-02-05T04:11:29.530Z,5.17
2023-02-05T04:15:31.607Z,5.19
2023-02-05T04:19:35.604Z,5.14
2023-02-05T04:23:38.462Z,5.15
2023-02-05T04:27:41.578Z,5.12
2023-02-05T04:31:43.725Z,5.15
2023-02-05T04:35:46.072Z,5.19
2023-02-05T04:39:48.143Z,5.11
2023-02-05T04:43:49.651Z,5.15
2023-02-05T04:47:51.139Z,5.15
2023-02-05T04:51:52.676Z,5.17
2023-02-05T04:56:08.187Z,5.17
2023-02-05T05:00:10.596Z,5.09
2023-02-05T05:04:12.144Z,5.14
2023-02-05T05:08:13.681Z,5.17
2023-02-05T05:12:15.229Z,5.15
2023-02-05T05:16:16.858Z,5.14
2023-02-05T05:20:18.529Z,5.11
2023-02-05T05:24:20.053Z,5.12
2023-02-05T05:28:21.645Z,5.09
2023-02-05T05:32:23.236Z,5.09
2023-02-05T05:36:24.813Z,5.11
2023-02-05T05:40:45.057Z,5.15
2023-02-05T05:44:52.060Z,5.15
2023-02-05T05:48:56.336Z,5.14
2023-02-05T05:52:57.853Z,5.14
2023-02-05T05:56:59.354Z,5.14
2023-02-05T06:01:00.916Z,5.11
2023-02-05T06:05:02.526Z,5.11
2023-02-05T06:09:04.122Z,5.05
2023-02-05T06:13:05.684Z,5.09
2023-02-05T06:17:07.357Z,5.06
2023-02-05T06:21:09.697Z,5.11
2023-02-05T06:25:11.330Z,5.12
2023-02-05T06:29:13.016Z,5.08
2023-02-05T06:33:14.600Z,5.05
2023-02-05T06:37:16.137Z,5.09
2023-02-05T06:41:17.703Z,5.11
2023-02-05T06:45:19.477Z,5.12
2023-02-05T06:49:21.126Z,5.12
2023-02-05T06:53:22.708Z,5.06
2023-02-05T06:57:24.260Z,5.08
2023-02-05T07:01:25.895Z,5.05
2023-02-05T07:05:27.589Z,5.02
2023-02-05T07:09:29.139Z,5.02
2023-02-05T07:13:30.832Z,5.02
2023-02-05T07:17:32.464Z,4.99
2023-02-05T07:21:34.057Z,4.99
2023-02-05T07:25:38.422Z,4.93
2023-02-05T07:29:39.983Z,4.99
2023-02-05T07:33:42.715Z,4.97
2023-02-05T07:37:44.401Z,4.99
2023-02-05T07:41:45.952Z,5.01
2023-02-05T07:45:57.755Z,5.01
2023-02-05T07:49:59.334Z,4.97
2023-02-05T07:54:00.891Z,4.97
2023-02-05T07:58:02.434Z,4.96
2023-02-05T08:02:04.110Z,4.94
2023-02-05T08:06:07.062Z,4.99
2023-02-05T08:10:10.022Z,5.02
2023-02-05T08:14:11.578Z,5.04
2023-02-05T08:18:13.096Z,5.06
2023-02-05T08:22:14.700Z,5.06
2023-02-05T08:26:16.858Z,5.09
2023-02-05T08:30:20.293Z,5.12
2023-02-05T08:34:21.909Z,5.17
2023-02-05T08:38:23.523Z,5.19
2023-02-05T08:42:25.241Z,5.22
2023-02-05T08:46:31.635Z,5.23
2023-02-05T08:50:38.974Z,5.30
2023-02-05T08:54:41.869Z,5.37
2023-02-05T08:58:43.428Z,5.40
2023-02-05T09:02:45.101Z,5.41
2023-02-05T09:06:47.303Z,5.32
2023-02-05T09:10:48.919Z,5.42
2023-02-05T09:14:50.412Z,5.41
2023-02-05T09:18:55.065Z,5.47
2023-02-05T09:22:56.731Z,5.55
2023-02-05T09:26:58.414Z,5.58
2023-02-05T09:31:06.071Z,5.63
2023-02-05T09:35:07.757Z,5.66
2023-02-05T09:39:20.603Z,5.67
2023-02-05T09:43:37.939Z,5.70
2023-02-05T09:47:51.284Z,5.70
2023-02-05T09:51:59.310Z,5.73
2023-02-05T09:56:04.199Z,5.74
2023-02-05T10:00:33.408Z,5.75
2023-02-05T10:04:35.362Z,5.77
2023-02-05T10:08:56.329Z,5.78
2023-02-05T10:13:23.538Z,5.81
2023-02-05T10:17:43.714Z,5.84
2023-02-05T10:22:04.206Z,5.83
2023-02-05T10:26:14.095Z,5.83
2023-02-05T10:30:41.731Z,5.84
2023-02-05T10:35:21.805Z,5.87
2023-02-05T10:39:28.831Z,5.92
2023-02-05T10:43:40.711Z,5.99
2023-02-05T10:47:56.633Z,6.02
2023-02-05T10:51:58.232Z,6.05
2023-02-05T10:56:02.630Z,6.10
2023-02-05T11:00:19.595Z,6.14
2023-02-05T11:04:43.973Z,6.16
2023-02-05T11:08:45.688Z,6.14
2023-02-05T11:12:51.200Z,6.16
2023-02-05T11:16:53.379Z,6.20
2023-02-05T11:21:01.011Z,6.20
2023-02-05T11:25:22.625Z,6.27
2023-02-05T11:29:24.436Z,6.27
2023-02-05T11:33:29.505Z,6.28
2023-02-05T11:37:31.137Z,6.32
2023-02-05T11:41:53.979Z,6.36
2023-02-05T11:45:57.897Z,6.42
2023-02-05T11:50:00.010Z,6.46
2023-02-05T11:54:14.499Z,6.48
2023-02-05T11:58:38.903Z,6.51
2023-02-05T12:02:42.314Z,6.54
2023-02-05T12:06:49.658Z,6.55
2023-02-05T12:12:04.198Z,6.55
2023-02-05T12:16:18.209Z,6.50
2023-02-05T12:20:29.265Z,6.51
2023-02-05T12:24:45.191Z,6.51
2023-02-05T12:29:13.889Z,6.48
2023-02-05T12:33:15.346Z,6.51
2023-02-05T12:37:32.843Z,6.50
2023-02-05T12:41:56.805Z,6.51
2023-02-05T12:45:58.411Z,6.55
2023-02-05T12:50:18.784Z,6.55
2023-02-05T12:54:55.984Z,6.61
2023-02-05T12:59:02.275Z,6.65
2023-02-05T13:03:11.718Z,6.65
2023-02-05T13:07:27.761Z,6.65
2023-02-05T13:11:35.401Z,6.72
2023-02-05T13:15:42.867Z,6.72
2023-02-05T13:19:49.426Z,6.72
2023-02-05T13:24:11.799Z,6.73
2023-02-05T13:28:58.375Z,6.69
2023-02-05T13:33:03.983Z,6.75
2023-02-05T13:37:29.698Z,6.76
2023-02-05T13:41:53.033Z,6.76
2023-02-05T13:46:13.059Z,6.75
2023-02-05T13:50:45.388Z,6.73
2023-02-05T13:55:04.210Z,6.75
2023-02-05T13:59:14.302Z,6.78
2023-02-05T14:03:26.751Z,6.81
2023-02-05T14:07:44.216Z,6.83
2023-02-05T14:11:56.932Z,6.82
2023-02-05T14:16:18.885Z,6.79
2023-02-05T14:20:24.102Z,6.76
2023-02-05T14:24:47.147Z,6.73
2023-02-05T14:28:51.355Z,6.69
2023-02-05T14:32:52.920Z,6.71
2023-02-05T14:36:55.119Z,6.69
2023-02-05T14:41:08.211Z,6.73
2023-02-05T14:45:15.956Z,6.71
2023-02-05T14:49:23.974Z,6.71
2023-02-05T14:53:29.613Z,6.72
2023-02-05T14:57:46.112Z,6.73
2023-02-05T15:01:50.417Z,6.73
2023-02-05T15:05:56.769Z,6.73
2023-02-05T15:10:05.879Z,6.76
2023-02-05T15:14:19.711Z,6.76
2023-02-05T15:18:28.544Z,6.73
2023-02-05T15:22:40.633Z,6.75
2023-02-05T15:26:47.140Z,6.76
2023-02-05T15:31:12.378Z,6.76
2023-02-05T15:35:21.342Z,6.72
2023-02-05T15:39:35.237Z,6.72
2023-02-05T15:43:36.856Z,6.69
2023-02-05T15:47:38.492Z,6.64
2023-02-05T15:51:41.118Z,6.58
2023-02-05T15:55:42.709Z,6.50
2023-02-05T15:59:44.341Z,6.48
2023-02-05T16:03:45.896Z,6.46
2023-02-05T16:07:51.767Z,6.45
2023-02-05T16:11:54.080Z,6.39
2023-02-05T16:16:07.847Z,6.35
2023-02-05T16:20:18.541Z,6.32
2023-02-05T16:24:34.236Z,6.33
2023-02-05T16:28:44.380Z,6.30
2023-02-05T16:32:47.039Z,6.25
2023-02-05T16:36:50.321Z,6.24
2023-02-05T16:40:54.966Z,6.17
2023-02-05T16:45:08.674Z,6.16
2023-02-05T16:49:31.180Z,6.14
2023-02-05T16:53:36.965Z,6.11
2023-02-05T16:57:39.436Z,6.08
2023-02-05T17:01:43.844Z,6.11
2023-02-05T17:05:56.956Z,6.11
2023-02-05T17:10:18.708Z,6.06
2023-02-05T17:14:35.774Z,6.08
2023-02-05T17:18:37.925Z,6.08
2023-02-05T17:22:39.473Z,6.05
2023-02-05T17:26:42.998Z,6.03
2023-02-05T17:30:46.220Z,6.05
2023-02-05T17:34:48.147Z,6.06
2023-02-05T17:38:50.480Z,5.99
2023-02-05T17:42:52.114Z,6.03
2023-02-05T17:46:54.257Z,5.99
2023-02-05T17:50:59.139Z,6.01
2023-02-05T17:55:00.742Z,6.01
2023-02-05T17:59:02.456Z,5.98
2023-02-05T18:03:04.006Z,5.96
2023-02-05T18:07:25.350Z,5.92
2023-02-05T18:11:26.961Z,5.88
2023-02-05T18:15:31.707Z,5.90
2023-02-05T18:19:34.746Z,5.85
2023-02-05T18:23:36.392Z,5.88
2023-02-05T18:27:38.416Z,5.90
2023-02-05T18:31:39.998Z,5.92
2023-02-05T18:35:41.588Z,5.88
2023-02-05T18:39:43.676Z,5.84
2023-02-05T18:43:45.327Z,5.84
2023-02-05T18:47:46.928Z,5.84
2023-02-05T18:51:48.481Z,5.83
2023-02-05T18:56:02.773Z,5.84
2023-02-05T19:00:04.605Z,5.85
2023-02-05T19:04:12.989Z,5.84
2023-02-05T19:08:14.555Z,5.81
2023-02-05T19:12:17.160Z,5.81
2023-02-05T19:16:18.760Z,5.84
2023-02-05T19:20:20.550Z,5.80
2023-02-05T19:24:22.288Z,5.80
2023-02-05T19:28:24.019Z,5.81
2023-02-05T19:32:25.711Z,5.78
2023-02-05T19:36:28.338Z,5.78
2023-02-05T19:40:29.860Z,5.78
2023-02-05T19:44:32.216Z,5.78
2023-02-05T19:48:34.406Z,5.77
2023-02-05T19:52:36.047Z,5.77
2023-02-05T19:56:38.040Z,5.77
2023-02-05T20:00:39.753Z,5.75
2023-02-05T20:04:42.120Z,5.80
2023-02-05T20:08:44.994Z,5.78
2023-02-05T20:12:49.315Z,5.78
2023-02-05T20:16:51.940Z,5.70
2023-02-05T20:20:53.811Z,5.67
2023-02-05T20:24:55.480Z,5.63
2023-02-05T20:29:16.183Z,5.60
2023-02-05T20:33:17.985Z,5.59
2023-02-05T20:37:19.884Z,5.56
2023-02-05T20:41:22.813Z,5.60
2023-02-05T20:45:24.429Z,5.58
2023-02-05T20:49:25.976Z,5.59
2023-02-05T20:53:27.562Z,5.51
2023-02-05T20:57:29.113Z,5.56
2023-02-05T21:01:31.949Z,5.58
2023-02-05T21:05:33.508Z,5.49
2023-02-05T21:09:35.377Z,5.48
2023-02-05T21:13:37.305Z,5.52
2023-02-05T21:17:38.981Z,5.47
2023-02-05T21:21:40.842Z,5.45
2023-02-05T21:25:43.051Z,5.44
2023-02-05T21:29:45.854Z,5.42
2023-02-05T21:33:47.602Z,5.41
2023-02-05T21:37:49.241Z,5.40
2023-02-05T21:41:51.035Z,5.37
2023-02-05T21:45:52.792Z,5.38
2023-02-05T21:49:55.455Z,5.35
2023-02-05T21:53:59.422Z,5.32
2023-02-05T21:58:01.142Z,5.32
2023-02-05T22:02:02.856Z,5.32
2023-02-05T22:06:07.983Z,5.33
2023-02-05T22:10:09.862Z,5.29
2023-02-05T22:14:11.894Z,5.26
2023-02-05T22:18:13.529Z,5.24
2023-02-05T22:22:15.247Z,5.22
2023-02-05T22:26:18.971Z,5.23
2023-02-05T22:30:20.967Z,5.24
2023-02-05T22:34:22.806Z,5.24
2023-02-05T22:38:24.976Z,5.24
2023-02-05T22:42:26.934Z,5.27
2023-02-05T22:46:31.664Z,5.26
2023-02-05T22:50:36.865Z,5.24
2023-02-05T22:54:38.508Z,5.17
2023-02-05T22:58:42.599Z,5.12
2023-02-05T23:02:44.214Z,5.12
2023-02-05T23:06:45.868Z,5.12
2023-02-05T23:10:47.382Z,5.11
2023-02-05T23:14:48.944Z,5.11
2023-02-05T23:18:51.711Z,5.09
2023-02-05T23:22:55.080Z,5.08
2023-02-05T23:26:56.651Z,5.08
2023-02-05T23:30:58.272Z,5.09
2023-02-05T23:35:00.036Z,5.06
2023-02-05T23:39:02.831Z,5.02
2023-02-05T23:43:04.496Z,5.01
2023-02-05T23:47:06.185Z,5.05
2023-02-05T23:51:07.867Z,5.04
2023-02-05T23:55:09.515Z,5.08
2023-02-05T23:59:12.955Z,5.11
